Time;durP1;ratioP1;P1;durP2;ratioP2;P2;SDS_P1;SDS_P2;PMS_P1;PMS_P2;Temp;Humidity;BMP_temperature;BMP_pressure;BME280_temperature;BME280_humidity;BME280_pressure;Samples;Min_cycle;Max_cycle;Signal;HPM_P1;HPM_P2
2022/10/14 00:01:10;;;;;;;38.67;20.35;;;;;;;11.09;100.00;101424.66;5050359;28;20727;-45
2022/10/14 00:03:39;;;;;;;46.83;22.17;;;;;;;11.09;100.00;101427.31;5049024;28;20057;-50
2022/10/14 00:06:11;;;;;;;38.75;19.42;;;;;;;11.00;100.00;101423.41;5050237;28;20048;-50
2022/10/14 00:08:39;;;;;;;50.97;18.27;;;;;;;10.83;100.00;101432.28;5050044;28;20412;-47
2022/10/14 00:11:09;;;;;;;41.28;18.77;;;;;;;10.92;100.00;101436.16;5049893;28;20037;-47
2022/10/14 00:13:39;;;;;;;51.50;19.50;;;;;;;10.92;100.00;101430.88;5032408;28;20056;-49
2022/10/14 00:16:14;;;;;;;41.83;20.00;;;;;;;10.90;100.00;101425.72;5049762;28;20053;-47
2022/10/14 00:18:42;;;;;;;43.45;20.15;;;;;;;10.93;100.00;101417.63;5048719;28;20384;-50
2022/10/14 00:21:11;;;;;;;47.47;21.83;;;;;;;11.01;100.00;101419.00;5032773;28;20420;-47
2022/10/14 00:23:39;;;;;;;56.20;21.52;;;;;;;10.95;100.00;101426.31;5050232;28;20060;-47
2022/10/14 00:26:07;;;;;;;45.15;21.15;;;;;;;10.93;100.00;101416.81;5049804;28;20087;-49
2022/10/14 00:28:35;;;;;;;46.00;21.38;;;;;;;10.92;100.00;101413.34;5032305;28;20041;-48
2022/10/14 00:31:04;;;;;;;52.42;23.30;;;;;;;10.98;100.00;101418.22;5049157;28;20044;-51
2022/10/14 00:33:32;;;;;;;52.35;21.73;;;;;;;10.94;100.00;101414.09;5048696;28;20048;-50
2022/10/14 00:36:03;;;;;;;46.72;22.10;;;;;;;10.91;100.00;101411.63;5049831;28;20047;-48
2022/10/14 00:38:31;;;;;;;71.45;21.40;;;;;;;10.90;100.00;101420.47;5049676;28;20045;-50
2022/10/14 00:40:59;;;;;;;62.35;22.90;;;;;;;10.94;100.00;101413.25;5049500;28;20120;-48
2022/10/14 00:43:28;;;;;;;60.55;21.95;;;;;;;10.90;100.00;101409.09;5049918;28;20103;-47
2022/10/14 00:45:56;;;;;;;56.80;21.10;;;;;;;10.73;100.00;101415.31;5031850;28;20084;-46
2022/10/14 00:48:26;;;;;;;68.03;21.85;;;;;;;10.76;100.00;101415.16;5048101;28;20052;-48
2022/10/14 00:50:57;;;;;;;56.85;19.95;;;;;;;10.78;100.00;101429.06;5049868;28;20057;-46
2022/10/14 00:53:25;;;;;;;43.60;19.55;;;;;;;10.81;100.00;101424.47;5050011;28;20155;-51
2022/10/14 00:55:53;;;;;;;45.05;17.85;;;;;;;10.70;100.00;101423.38;5049712;28;20041;-47
2022/10/14 00:58:21;;;;;;;37.85;16.17;;;;;;;10.69;100.00;101422.53;5031779;28;20049;-50
2022/10/14 01:00:49;;;;;;;36.10;15.50;;;;;;;10.69;100.00;101426.94;5050186;28;20495;-48
2022/10/14 01:03:20;;;;;;;45.90;15.13;;;;;;;10.62;100.00;101424.66;5047863;28;20495;-49
2022/10/14 01:06:00;;;;;;;36.42;15.30;;;;;;;10.65;100.00;101418.38;5052416;28;20554;-47
2022/10/14 01:08:35;;;;;;;37.63;16.35;;;;;;;10.65;100.00;101413.13;5052992;28;20056;-49
2022/10/14 01:11:09;;;;;;;54.47;16.88;;;;;;;10.55;100.00;101410.16;5035047;28;20103;-48
2022/10/14 01:13:44;;;;;;;35.85;15.50;;;;;;;10.60;100.00;101410.75;5052987;28;20049;-48
2022/10/14 01:16:21;;;;;;;39.97;16.15;;;;;;;10.58;100.00;101412.63;5052240;28;20408;-50
2022/10/14 01:19:08;;;;;;;48.35;16.98;;;;;;;10.60;100.00;101399.38;5051589;28;20052;-50
2022/10/14 01:21:42;;;;;;;43.00;16.85;;;;;;;10.57;100.00;101395.13;5052847;28;20056;-48
2022/10/14 01:24:26;;;;;;;38.17;17.30;;;;;;;10.58;100.00;101396.84;5052479;28;20065;-49
2022/10/14 01:27:33;;;;;;;40.58;16.48;;;;;;;10.60;100.00;101392.31;5052596;28;20070;-47
2022/10/14 01:30:12;;;;;;;41.65;16.23;;;;;;;10.59;100.00;101385.41;5052672;28;20475;-54
2022/10/14 01:32:50;;;;;;;41.70;16.15;;;;;;;10.59;100.00;101379.25;5050703;28;20045;-49
2022/10/14 01:35:28;;;;;;;47.15;18.35;;;;;;;10.52;100.00;101376.13;5052747;28;20094;-48
2022/10/14 01:38:01;;;;;;;47.20;17.63;;;;;;;10.54;100.00;101363.75;5052329;28;20068;-47
2022/10/14 01:40:35;;;;;;;41.15;17.30;;;;;;;10.51;100.00;101363.91;5034799;28;20084;-50
2022/10/14 01:43:05;;;;;;;60.28;18.05;;;;;;;10.55;100.00;101357.56;5052576;28;20399;-48
2022/10/14 01:45:38;;;;;;;35.40;16.98;;;;;;;10.54;100.00;101357.63;5052727;28;20048;-47
2022/10/14 01:48:10;;;;;;;35.33;16.48;;;;;;;10.56;100.00;101348.72;5050150;28;20049;-51
2022/10/14 01:50:43;;;;;;;32.53;17.15;;;;;;;10.56;100.00;101342.63;5052926;28;20045;-55
2022/10/14 01:53:16;;;;;;;39.33;18.27;;;;;;;10.55;100.00;101339.16;5052230;28;20053;-52
2022/10/14 01:55:47;;;;;;;38.20;18.02;;;;;;;10.51;100.00;101339.41;5052338;28;20041;-52
2022/10/14 01:58:18;;;;;;;37.63;18.38;;;;;;;10.57;100.00;101334.66;5052051;28;20049;-54
2022/10/14 02:00:50;;;;;;;42.75;18.13;;;;;;;10.50;100.00;101333.31;5052538;28;20052;-49
2022/10/14 02:03:18;;;;;;;36.42;18.30;;;;;;;10.49;100.00;101334.25;5050886;28;20048;-52
2022/10/14 02:05:51;;;;;;;38.25;17.90;;;;;;;10.40;100.00;101329.50;5052666;28;20044;-52
2022/10/14 02:08:29;;;;;;;46.28;17.80;;;;;;;10.36;100.00;101323.59;5052431;28;20132;-51
2022/10/14 02:11:07;;;;;;;57.90;18.85;;;;;;;10.36;100.00;101322.72;5052052;28;20079;-49
2022/10/14 02:13:50;;;;;;;44.75;18.33;;;;;;;10.39;100.00;101326.03;5034247;28;20049;-53
2022/10/14 02:16:33;;;;;;;39.88;17.40;;;;;;;10.40;100.00;101330.34;5033668;28;20048;-50
2022/10/14 02:19:08;;;;;;;41.78;18.83;;;;;;;10.27;100.00;101342.47;5050082;28;20052;-52
2022/10/14 02:21:41;;;;;;;39.90;18.42;;;;;;;10.34;100.00;101350.84;5052198;28;20521;-49
2022/10/14 02:24:14;;;;;;;41.47;19.00;;;;;;;10.38;100.00;101347.16;5051715;28;20052;-52
2022/10/14 02:26:43;;;;;;;38.50;18.90;;;;;;;10.48;100.00;101343.91;5052111;28;20415;-53
2022/10/14 02:29:12;;;;;;;47.15;19.77;;;;;;;10.46;100.00;101339.69;5050953;28;21138;-49
2022/10/14 02:31:44;;;;;;;37.80;18.70;;;;;;;10.37;100.00;101340.19;5051626;28;20063;-54
2022/10/14 02:34:17;;;;;;;41.03;18.23;;;;;;;10.42;100.00;101332.91;5049927;28;20048;-53
2022/10/14 02:36:47;;;;;;;46.83;20.83;;;;;;;10.45;100.00;101324.81;5052045;28;20056;-53
2022/10/14 02:39:21;;;;;;;43.53;19.10;;;;;;;10.52;100.00;101326.16;5051516;28;20037;-51
2022/10/14 02:41:49;;;;;;;48.90;19.25;;;;;;;10.44;100.00;101331.88;5051780;28;20053;-51
2022/10/14 02:44:17;;;;;;;44.22;20.00;;;;;;;10.43;100.00;101326.69;5033611;28;20484;-52
2022/10/14 02:46:48;;;;;;;54.28;20.02;;;;;;;10.41;100.00;101332.03;5051547;28;20548;-50
2022/10/14 02:49:19;;;;;;;45.85;20.00;;;;;;;10.46;100.00;101330.00;5050088;28;20147;-52
2022/10/14 02:51:47;;;;;;;59.05;20.83;;;;;;;10.41;100.00;101316.25;5051677;28;20060;-52
2022/10/14 02:54:15;;;;;;;57.22;22.65;;;;;;;10.40;100.00;101319.84;5051444;28;20047;-55
2022/10/14 02:56:43;;;;;;;49.60;19.92;;;;;;;10.38;100.00;101315.59;5051470;28;20060;-52
2022/10/14 02:59:11;;;;;;;45.92;19.75;;;;;;;10.38;100.00;101318.22;5050534;28;20566;-52
2022/10/14 03:01:40;;;;;;;50.30;19.80;;;;;;;10.39;100.00;101312.00;5051533;28;20511;-52
2022/10/14 03:04:09;;;;;;;49.00;20.55;;;;;;;10.48;100.00;101309.72;5049635;28;20094;-51
2022/10/14 03:06:37;;;;;;;43.88;18.50;;;;;;;10.50;100.00;101309.66;5051595;28;20108;-52
2022/10/14 03:09:06;;;;;;;49.92;19.88;;;;;;;10.51;100.00;101307.84;5050860;28;20098;-52
2022/10/14 03:11:34;;;;;;;51.58;20.42;;;;;;;10.43;100.00;101306.50;5050997;28;20140;-54
2022/10/14 03:14:02;;;;;;;45.50;20.50;;;;;;;10.44;100.00;101305.59;5050902;28;20064;-53
2022/10/14 03:16:30;;;;;;;47.85;20.38;;;;;;;10.47;100.00;101299.28;5050641;28;20320;-54
2022/10/14 03:18:58;;;;;;;46.63;21.67;;;;;;;10.41;100.00;101297.00;5031315;28;20045;-53
2022/10/14 03:21:28;;;;;;;44.40;20.60;;;;;;;10.41;100.00;101297.84;5050982;28;20507;-51
2022/10/14 03:23:56;;;;;;;45.80;20.25;;;;;;;10.44;100.00;101296.84;5050947;28;20057;-53
2022/10/14 03:26:25;;;;;;;47.88;22.77;;;;;;;10.45;100.00;101290.66;5050738;28;20053;-53
2022/10/14 03:28:53;;;;;;;44.60;21.48;;;;;;;10.45;100.00;101290.66;5049811;28;20084;-51
2022/10/14 03:31:22;;;;;;;49.25;21.33;;;;;;;10.49;100.00;101286.91;5050218;28;20090;-51
2022/10/14 03:33:52;;;;;;;46.45;22.00;;;;;;;10.39;100.00;101286.59;5049113;28;20045;-51
2022/10/14 03:36:20;;;;;;;51.15;20.67;;;;;;;10.44;100.00;101273.16;5050621;28;20427;-52
2022/10/14 03:38:50;;;;;;;48.65;21.35;;;;;;;10.38;100.00;101273.53;5050829;28;20041;-53
2022/10/14 03:41:18;;;;;;;49.17;20.85;;;;;;;10.38;100.00;101273.53;5050506;28;20041;-50
2022/10/14 03:43:46;;;;;;;39.33;18.80;;;;;;;10.31;100.00;101271.22;5050508;28;20068;-52
2022/10/14 03:46:14;;;;;;;46.53;21.38;;;;;;;10.35;100.00;101264.03;5031971;28;20407;-53
2022/10/14 03:48:43;;;;;;;45.83;21.45;;;;;;;10.31;100.00;101257.22;5048993;28;20486;-52
2022/10/14 03:51:11;;;;;;;47.22;22.27;;;;;;;10.34;100.00;101262.31;5050290;28;20052;-52
2022/10/14 03:53:39;;;;;;;47.70;22.13;;;;;;;10.31;100.00;101258.06;5050830;28;20045;-52
2022/10/14 03:56:09;;;;;;;45.75;21.17;;;;;;;10.37;100.00;101256.06;5050604;28;20504;-52
2022/10/14 03:58:37;;;;;;;46.97;22.23;;;;;;;10.39;100.00;101260.28;5050151;28;20052;-53
2022/10/14 04:01:05;;;;;;;47.42;22.58;;;;;;;10.41;100.00;101262.84;5049719;28;20845;-53
2022/10/14 04:03:33;;;;;;;47.95;22.98;;;;;;;10.46;100.00;101261.63;5049235;28;20051;-51
2022/10/14 04:06:01;;;;;;;49.05;22.80;;;;;;;10.41;100.00;101255.78;5050047;28;20091;-52
2022/10/14 04:08:29;;;;;;;53.13;24.10;;;;;;;10.44;100.00;101249.50;5050337;28;20073;-54
2022/10/14 04:10:57;;;;;;;52.20;25.48;;;;;;;10.47;100.00;101255.44;5049945;28;20052;-53
2022/10/14 04:13:27;;;;;;;48.40;23.30;;;;;;;10.51;100.00;101239.47;5049921;28;20045;-52
2022/10/14 04:15:55;;;;;;;54.60;25.17;;;;;;;10.58;100.00;101239.03;5049209;28;20066;-53
2022/10/14 04:18:23;;;;;;;50.85;24.75;;;;;;;10.58;100.00;101238.16;5030481;28;20473;-50
2022/10/14 04:20:51;;;;;;;52.25;24.77;;;;;;;10.59;100.00;101234.59;5050174;28;20079;-55
2022/10/14 04:23:19;;;;;;;49.70;23.90;;;;;;;10.64;100.00;101228.13;5049908;28;20123;-54
2022/10/14 04:25:47;;;;;;;53.05;24.17;;;;;;;10.65;100.00;101239.53;5032128;28;20415;-53
2022/10/14 04:28:15;;;;;;;54.10;24.90;;;;;;;10.64;100.00;101237.81;5049872;28;20059;-54
2022/10/14 04:30:45;;;;;;;53.35;24.38;;;;;;;10.69;100.00;101233.13;5050123;28;20041;-54
2022/10/14 04:33:13;;;;;;;51.33;24.55;;;;;;;10.69;100.00;101229.66;5047592;28;20131;-53
2022/10/14 04:35:41;;;;;;;51.80;23.52;;;;;;;10.69;100.00;101224.38;5049895;28;20049;-54
2022/10/14 04:38:11;;;;;;;54.05;25.92;;;;;;;10.70;100.00;101226.91;5049880;28;20068;-51
2022/10/14 04:40:39;;;;;;;53.70;26.27;;;;;;;10.62;100.00;101223.91;5053755;28;20060;-54
2022/10/14 04:43:07;;;;;;;55.50;26.45;;;;;;;10.70;100.00;101218.19;5035367;28;20140;-54
2022/10/14 04:45:35;;;;;;;57.38;27.63;;;;;;;10.71;100.00;101212.84;5054229;28;20450;-52
2022/10/14 04:48:05;;;;;;;56.78;26.92;;;;;;;10.77;100.00;101211.63;5051528;28;20365;-51
2022/10/14 04:50:33;;;;;;;48.13;24.80;;;;;;;10.76;100.00;101207.31;5053700;28;20048;-51
2022/10/14 04:53:01;;;;;;;53.75;25.15;;;;;;;10.77;100.00;101206.34;5035425;28;20052;-52
2022/10/14 04:55:29;;;;;;;57.25;27.42;;;;;;;10.76;100.00;101208.16;5053319;28;20065;-52
2022/10/14 04:57:57;;;;;;;60.28;27.35;;;;;;;10.72;100.00;101197.91;5052678;28;20056;-52
2022/10/14 05:00:25;;;;;;;58.42;27.20;;;;;;;10.76;100.00;101199.44;5053339;28;20045;-55
2022/10/14 05:02:53;;;;;;;59.13;26.60;;;;;;;10.77;100.00;101203.72;5033238;28;20048;-53
2022/10/14 05:05:22;;;;;;;62.85;28.63;;;;;;;10.78;100.00;101203.66;5053915;28;20052;-53
2022/10/14 05:07:50;;;;;;;62.33;28.02;;;;;;;10.79;100.00;101197.44;5053480;28;20051;-54
2022/10/14 05:10:21;;;;;;;57.72;27.65;;;;;;;10.85;100.00;101203.28;5053862;28;20087;-53
2022/10/14 05:12:52;;;;;;;55.42;27.15;;;;;;;10.80;100.00;101196.50;5052891;28;20040;-52
2022/10/14 05:15:21;;;;;;;68.35;28.02;;;;;;;10.85;100.00;101196.22;5053326;28;20049;-56
2022/10/14 05:17:49;;;;;;;64.03;29.52;;;;;;;10.88;100.00;101187.28;5033794;28;20080;-51
2022/10/14 05:20:18;;;;;;;59.33;29.63;;;;;;;10.86;100.00;101181.28;5053787;28;20144;-52
2022/10/14 05:22:47;;;;;;;64.03;26.40;;;;;;;10.85;100.00;101175.16;5053369;28;20499;-48
2022/10/14 05:25:15;;;;;;;65.18;28.40;;;;;;;10.90;100.00;101173.09;5053224;28;20045;-48
2022/10/14 05:27:43;;;;;;;70.47;30.77;;;;;;;10.93;100.00;101170.28;5052925;28;20081;-48
2022/10/14 05:30:12;;;;;;;71.07;30.70;;;;;;;10.94;100.00;101166.72;5034988;28;20057;-49
2022/10/14 05:32:40;;;;;;;62.53;29.30;;;;;;;10.96;100.00;101167.47;5050602;28;20096;-47
2022/10/14 05:35:09;;;;;;;63.28;28.83;;;;;;;10.96;100.00;101159.59;5052846;28;20411;-50
2022/10/14 05:37:37;;;;;;;60.22;28.33;;;;;;;11.02;100.00;101162.78;5053222;28;20051;-45
2022/10/14 05:40:09;;;;;;;70.80;29.50;;;;;;;11.03;100.00;101164.44;5052562;28;20041;-48
2022/10/14 05:42:38;;;;;;;68.97;31.20;;;;;;;11.07;100.00;101165.94;5052594;28;20037;-48
2022/10/14 05:45:06;;;;;;;60.60;28.52;;;;;;;11.07;100.00;101152.78;5052594;28;20484;-51
2022/10/14 05:47:35;;;;;;;63.75;28.90;;;;;;;11.08;100.00;101155.31;5050876;28;20053;-48
2022/10/14 05:50:03;;;;;;;62.60;29.48;;;;;;;11.13;100.00;101150.63;5051974;28;20127;-46
2022/10/14 05:52:31;;;;;;;69.10;29.50;;;;;;;11.15;100.00;101150.53;5052268;28;20411;-50
2022/10/14 05:55:01;;;;;;;54.97;29.27;;;;;;;11.16;100.00;101142.53;5034410;28;20052;-49
2022/10/14 05:57:32;;;;;;;64.43;32.60;;;;;;;11.21;100.00;101134.34;5051744;28;20557;-51
2022/10/14 06:00:01;;;;;;;65.75;34.30;;;;;;;11.22;100.00;101133.41;5052379;28;20041;-47
2022/10/14 06:02:29;;;;;;;66.35;32.53;;;;;;;11.26;100.00;101129.66;5050199;28;20053;-53
2022/10/14 06:04:58;;;;;;;57.85;33.15;;;;;;;11.32;100.00;101128.41;5052526;28;20048;-48
2022/10/14 06:07:26;;;;;;;61.05;34.53;;;;;;;11.40;100.00;101126.13;5052333;28;20131;-52
2022/10/14 06:09:54;;;;;;;63.53;35.45;;;;;;;11.44;100.00;101126.78;5051973;28;20041;-53
2022/10/14 06:12:22;;;;;;;60.67;35.05;;;;;;;11.55;100.00;101119.03;5051757;28;20515;-52
2022/10/14 06:14:52;;;;;;;58.65;33.42;;;;;;;11.65;100.00;101121.91;5052203;28;20535;-52
2022/10/14 06:17:20;;;;;;;58.97;34.10;;;;;;;11.61;100.00;101130.94;5050402;28;20097;-53
2022/10/14 06:19:48;;;;;;;60.58;35.65;;;;;;;11.63;100.00;101129.91;5051579;28;20045;-53
2022/10/14 06:22:16;;;;;;;57.90;34.75;;;;;;;11.64;100.00;101122.84;5051665;28;20102;-53
2022/10/14 06:24:44;;;;;;;61.47;35.15;;;;;;;11.70;100.00;101126.88;5034727;28;20451;-49
2022/10/14 06:27:12;;;;;;;58.10;34.63;;;;;;;11.76;100.00;101114.13;5051335;28;20076;-52
2022/10/14 06:29:40;;;;;;;60.17;35.42;;;;;;;11.74;100.00;101113.41;5052129;28;20045;-50
2022/10/14 06:32:10;;;;;;;54.50;33.10;;;;;;;11.72;100.00;101119.72;5049669;28;20132;-50
2022/10/14 06:34:38;;;;;;;58.13;32.30;;;;;;;11.78;100.00;101114.03;5051474;28;20511;-51
2022/10/14 06:37:06;;;;;;;55.13;32.30;;;;;;;11.82;100.00;101111.09;5052159;28;20049;-53
2022/10/14 06:39:34;;;;;;;54.10;33.40;;;;;;;11.81;100.00;101119.13;5051496;28;20052;-52
2022/10/14 06:42:03;;;;;;;56.08;33.67;;;;;;;11.86;100.00;101110.91;5033632;28;20106;-50
2022/10/14 06:44:36;;;;;;;51.67;31.40;;;;;;;11.84;100.00;101105.72;5051755;28;20072;-53
2022/10/14 06:47:06;;;;;;;53.00;32.65;;;;;;;11.87;100.00;101110.78;5050184;28;20048;-51
2022/10/14 06:49:36;;;;;;;50.15;31.45;;;;;;;11.88;100.00;101109.84;5051013;28;20056;-47
2022/10/14 06:52:04;;;;;;;52.83;31.27;;;;;;;11.95;100.00;101116.44;5051028;28;20124;-47
2022/10/14 06:54:32;;;;;;;53.55;31.05;;;;;;;11.94;100.00;101104.22;5051230;28;20052;-47
2022/10/14 06:57:06;;;;;;;50.50;31.08;;;;;;;12.04;100.00;101104.44;5051113;28;20392;-47
2022/10/14 06:59:34;;;;;;;49.30;29.77;;;;;;;12.04;100.00;101095.66;5051395;28;20492;-50
2022/10/14 07:02:02;;;;;;;49.00;31.98;;;;;;;12.06;100.00;101091.97;5049806;28;20561;-52
2022/10/14 07:04:30;;;;;;;50.65;30.55;;;;;;;12.05;100.00;101085.03;5050580;28;20045;-47
2022/10/14 07:07:01;;;;;;;49.97;29.92;;;;;;;12.04;100.00;101096.53;5051315;28;20439;-46
2022/10/14 07:09:30;;;;;;;46.90;29.92;;;;;;;12.03;100.00;101101.91;5050860;28;20136;-46
2022/10/14 07:11:58;;;;;;;51.75;28.73;;;;;;;12.06;100.00;101099.06;5050680;28;20037;-52
2022/10/14 07:14:26;;;;;;;50.72;31.20;;;;;;;12.08;100.00;101102.41;5051276;28;20110;-50
2022/10/14 07:16:54;;;;;;;46.40;28.50;;;;;;;12.15;100.00;101095.81;5050269;28;20136;-52
2022/10/14 07:19:22;;;;;;;48.10;28.42;;;;;;;12.21;100.00;101105.09;5049226;28;20053;-51
2022/10/14 07:21:50;;;;;;;42.63;27.70;;;;;;;12.24;100.00;101104.88;5050548;28;20041;-53
2022/10/14 07:24:20;;;;;;;45.88;26.63;;;;;;;12.22;100.00;101094.44;5050750;28;20045;-53
2022/10/14 07:26:48;;;;;;;42.53;25.73;;;;;;;12.23;100.00;101096.13;5050983;28;20045;-48
2022/10/14 07:29:16;;;;;;;40.30;25.02;;;;;;;12.21;100.00;101092.75;5050436;28;20056;-49
2022/10/14 07:31:44;;;;;;;37.85;22.80;;;;;;;12.29;100.00;101087.78;5050587;28;20051;-52
2022/10/14 07:34:12;;;;;;;38.67;23.88;;;;;;;12.24;100.00;101095.16;5049006;28;20102;-52
2022/10/14 07:36:40;;;;;;;34.83;22.13;;;;;;;12.36;100.00;101090.03;5051022;28;20403;-52
2022/10/14 07:39:08;;;;;;;37.15;23.65;;;;;;;12.38;100.00;101086.31;5050297;28;20099;-52
2022/10/14 07:41:39;;;;;;;34.88;23.10;;;;;;;12.41;100.00;101086.09;5050306;28;20048;-53
2022/10/14 07:44:08;;;;;;;36.67;22.10;;;;;;;12.36;100.00;101092.66;5050008;28;20458;-51
2022/10/14 07:46:39;;;;;;;37.85;22.75;;;;;;;12.39;100.00;101092.44;5050621;28;20533;-51
2022/10/14 07:49:11;;;;;;;30.45;20.33;;;;;;;12.45;100.00;101097.31;5030825;28;20152;-54
2022/10/14 07:51:40;;;;;;;30.67;19.85;;;;;;;12.47;100.00;101084.84;5050475;28;20044;-54
2022/10/14 07:54:13;;;;;;;28.98;19.63;;;;;;;12.44;100.00;101090.34;5050224;28;20515;-49
2022/10/14 07:56:44;;;;;;;63.63;20.73;;;;;;;12.49;100.00;101088.22;5050713;28;20056;-49
2022/10/14 07:59:12;;;;;;;27.23;18.38;;;;;;;12.54;100.00;101086.09;5049577;28;20067;-52
2022/10/14 08:01:41;;;;;;;29.52;18.70;;;;;;;12.59;100.00;101086.63;5050119;28;20456;-52
2022/10/14 08:04:11;;;;;;;26.02;17.98;;;;;;;12.60;100.00;101090.94;5048372;28;20111;-51
2022/10/14 08:06:39;;;;;;;28.02;17.85;;;;;;;12.63;100.00;101089.91;5050292;28;20119;-50
2022/10/14 08:09:08;;;;;;;24.63;16.60;;;;;;;12.64;100.00;101079.22;5050046;28;20056;-52
2022/10/14 08:11:37;;;;;;;22.90;15.18;;;;;;;12.70;100.00;101080.59;5050139;28;20045;-50
2022/10/14 08:14:07;;;;;;;23.40;15.88;;;;;;;12.72;100.00;101077.84;5049672;28;20106;-55
2022/10/14 08:16:36;;;;;;;22.65;15.95;;;;;;;12.78;100.00;101080.06;5049976;28;20056;-53
2022/10/14 08:19:07;;;;;;;22.40;15.45;;;;;;;12.78;100.00;101077.41;5030541;28;20051;-52
2022/10/14 08:21:42;;;;;;;19.85;14.25;;;;;;;12.82;100.00;101073.59;5050180;28;20069;-52
2022/10/14 08:24:10;;;;;;;21.08;14.68;;;;;;;12.84;100.00;101069.06;5031953;28;20072;-53
2022/10/14 08:26:40;;;;;;;18.40;13.98;;;;;;;12.94;100.00;101066.59;5049829;28;20052;-54
2022/10/14 08:29:11;;;;;;;18.52;13.98;;;;;;;12.95;100.00;101055.94;5049482;28;20053;-53
2022/10/14 08:31:39;;;;;;;21.65;15.38;;;;;;;13.01;100.00;101063.41;5049851;28;20052;-54
2022/10/14 08:34:07;;;;;;;17.80;13.73;;;;;;;13.04;100.00;101061.53;5030327;28;20043;-52
2022/10/14 08:36:35;;;;;;;18.40;14.25;;;;;;;13.05;100.00;101058.75;5049996;28;20056;-52
2022/10/14 08:39:05;;;;;;;19.17;15.23;;;;;;;13.07;100.00;101066.56;5032179;28;20087;-53
2022/10/14 08:41:55;;;;;;;19.17;14.55;;;;;;;13.11;100.00;101065.41;5049657;28;20438;-54
2022/10/14 08:44:28;;;;;;;19.15;14.77;;;;;;;13.11;100.00;101063.59;5049713;28;20424;-55
2022/10/14 08:46:59;;;;;;;19.15;14.50;;;;;;;13.14;100.00;101062.53;5049255;28;20450;-55
2022/10/14 08:49:32;;;;;;;18.88;14.70;;;;;;;13.12;100.00;101051.25;5048898;28;20527;-54
2022/10/14 08:52:03;;;;;;;;;;;;;;;13.16;100.00;101055.34;5032068;28;20049;-54
2022/10/14 08:54:36;;;;;;;18.55;14.15;;;;;;;13.18;100.00;101053.41;5049580;28;19965;-53
2022/10/14 08:57:06;;;;;;;19.73;14.00;;;;;;;13.25;100.00;101057.31;5031735;28;20045;-52
2022/10/14 08:59:40;;;;;;;18.90;15.05;;;;;;;13.23;100.00;101053.94;5049500;28;20139;-49
2022/10/14 09:02:20;;;;;;;17.83;14.18;;;;;;;13.25;100.00;101059.97;5048098;28;20370;-54
2022/10/14 09:04:49;;;;;;;16.60;13.20;;;;;;;13.32;100.00;101048.00;5049338;28;20511;-52
2022/10/14 09:07:19;;;;;;;15.88;12.55;;;;;;;13.34;100.00;101059.28;5031920;28;20559;-50
2022/10/14 09:09:51;;;;;;;16.15;13.77;;;;;;;13.33;100.00;101062.88;5049812;28;20504;-53
2022/10/14 09:12:25;;;;;;;17.67;12.93;;;;;;;13.39;100.00;101053.69;5049401;28;20500;-52
2022/10/14 09:15:04;;;;;;;18.25;13.05;;;;;;;13.37;100.00;101057.41;5049484;28;20578;-51
2022/10/14 09:17:37;;;;;;;15.38;12.50;;;;;;;13.40;100.00;101057.16;5047532;28;20535;-51
2022/10/14 09:20:16;;;;;;;15.82;12.68;;;;;;;13.39;100.00;101043.13;5049055;28;20069;-50
2022/10/14 09:22:45;;;;;;;18.67;12.70;;;;;;;13.45;100.00;101039.19;5049630;28;20460;-52
2022/10/14 09:25:15;;;;;;;14.48;11.73;;;;;;;13.45;100.00;101034.72;5049188;28;20047;-52
2022/10/14 09:27:43;;;;;;;13.55;10.93;;;;;;;13.50;100.00;101037.06;5052803;28;20458;-53
2022/10/14 09:30:18;;;;;;;12.98;10.63;;;;;;;13.51;100.00;101038.72;5053245;28;20048;-51
2022/10/14 09:32:51;;;;;;;15.83;10.50;;;;;;;13.53;100.00;101042.09;5033059;28;20522;-51
2022/10/14 09:35:24;;;;;;;15.38;11.25;;;;;;;13.56;100.00;101036.56;5053211;28;20450;-51
2022/10/14 09:37:52;;;;;;;14.45;11.13;;;;;;;13.63;100.00;101040.47;5052965;28;20423;-51
2022/10/14 09:40:28;;;;;;;14.25;11.85;;;;;;;13.65;100.00;101035.91;5053213;28;20041;-51
2022/10/14 09:43:01;;;;;;;13.63;11.48;;;;;;;13.67;100.00;101035.78;5052125;28;20056;-52
2022/10/14 09:45:47;;;;;;;13.45;11.00;;;;;;;13.67;100.00;101022.56;5053104;28;20435;-53
2022/10/14 09:48:19;;;;;;;13.77;12.23;;;;;;;13.77;100.00;101014.78;5050775;28;20053;-55
2022/10/14 09:50:53;;;;;;;13.20;11.63;;;;;;;13.77;100.00;101015.63;5034981;28;20451;-53
2022/10/14 09:53:28;;;;;;;13.82;11.52;;;;;;;13.85;100.00;101017.66;5052808;28;20048;-53
2022/10/14 09:55:58;;;;;;;;;;;;;;;13.98;100.00;101014.94;5035067;28;20068;-53
2022/10/14 09:58:42;;;;;;;13.32;11.27;;;;;;;13.99;100.00;101017.47;5052109;28;19924;-53
2022/10/14 10:01:18;;;;;;;16.63;11.93;;;;;;;14.02;100.00;101011.09;5051910;28;20056;-53
2022/10/14 10:03:48;;;;;;;13.23;11.20;;;;;;;14.07;100.00;101010.75;5050463;28;20047;-53
2022/10/14 10:06:19;;;;;;;14.40;11.93;;;;;;;14.13;100.00;101018.22;5052407;28;20099;-55
2022/10/14 10:08:57;;;;;;;14.27;11.77;;;;;;;14.19;100.00;101017.72;5052733;28;20057;-55
2022/10/14 10:11:30;;;;;;;12.75;10.93;;;;;;;14.20;100.00;101011.47;5052217;28;20063;-55
2022/10/14 10:13:58;;;;;;;12.65;10.98;;;;;;;14.17;100.00;101011.72;5051560;28;20052;-56
2022/10/14 10:16:30;;;;;;;13.52;10.93;;;;;;;14.21;100.00;101018.47;5051794;28;20520;-55
2022/10/14 10:19:19;;;;;;;11.70;9.82;;;;;;;14.20;100.00;101009.66;5050155;28;20049;-54
2022/10/14 10:21:47;;;;;;;13.02;9.60;;;;;;;14.30;100.00;101011.59;5034263;28;20045;-54
2022/10/14 10:24:20;;;;;;;10.82;9.73;;;;;;;14.27;100.00;101010.03;5033962;28;20076;-53
2022/10/14 10:26:55;;;;;;;12.25;9.65;;;;;;;14.31;100.00;101006.19;5051774;28;20052;-53
2022/10/14 10:29:29;;;;;;;14.10;10.55;;;;;;;14.35;100.00;101004.97;5051739;28;20124;-55
2022/10/14 10:32:12;;;;;;;14.30;10.63;;;;;;;14.40;100.00;100998.47;5050798;28;20048;-54
2022/10/14 10:35:03;;;;;;;13.88;10.07;;;;;;;14.40;100.00;100994.06;5052058;28;20137;-54
2022/10/14 10:37:37;;;;;;;12.20;9.93;;;;;;;14.44;100.00;100984.91;5043388;28;20524;-56
2022/10/14 10:40:31;;;;;;;13.10;10.07;;;;;;;14.45;100.00;100986.59;5051433;28;20064;-54
2022/10/14 10:43:20;;;;;;;12.57;10.98;;;;;;;14.46;100.00;100980.31;5051377;28;20103;-55
2022/10/14 10:46:04;;;;;;;15.07;11.00;;;;;;;14.52;100.00;100977.19;5051795;28;20059;-56
2022/10/14 10:48:43;;;;;;;12.85;10.88;;;;;;;14.61;100.00;100974.78;5032229;28;20053;-49
2022/10/14 10:51:17;;;;;;;12.73;10.90;;;;;;;14.69;100.00;100969.75;5051404;28;20579;-50
2022/10/14 10:53:59;;;;;;;14.95;11.35;;;;;;;14.80;100.00;100969.72;5051936;28;20056;-52
2022/10/14 10:56:37;;;;;;;16.27;11.20;;;;;;;14.79;100.00;100972.47;5051540;28;20079;-51
2022/10/14 10:59:36;;;;;;;15.75;11.23;;;;;;;14.89;100.00;100965.50;5032892;28;20448;-51
2022/10/14 11:02:37;;;;;;;12.68;11.02;;;;;;;14.99;100.00;100953.16;5043488;28;20064;-48
2022/10/14 11:05:12;;;;;;;12.73;10.73;;;;;;;14.99;100.00;100958.44;5032478;28;20056;-49
2022/10/14 11:13:51;;;;;;;14.10;10.18;;;;;;;15.04;100.00;100939.56;4994481;28;20061;-48
2022/10/14 11:16:28;;;;;;;11.82;10.52;;;;;;;15.10;100.00;100940.84;5050703;28;20072;-49
2022/10/14 11:19:05;;;;;;;11.38;9.70;;;;;;;15.05;100.00;100927.97;5031693;28;20053;-52
2022/10/14 11:21:48;;;;;;;11.18;8.98;;;;;;;15.07;100.00;100933.16;5033238;28;20056;-50
2022/10/14 11:24:28;;;;;;;14.38;9.88;;;;;;;14.98;100.00;100929.44;5050762;28;20052;-51
2022/10/14 11:27:07;;;;;;;11.32;9.68;;;;;;;15.01;100.00;100932.69;5050707;28;20045;-49